sensor_id;sensor_type;location;lat;lon;timestamp;temperature;humidity
42037;DHT22;30340;52.004;5.908;2022-12-19T00:01:18;1.60;86.80
42037;DHT22;30340;52.004;5.908;2022-12-19T00:03:45;1.60;86.70
42037;DHT22;30340;52.004;5.908;2022-12-19T00:06:12;1.60;86.60
42037;DHT22;30340;52.004;5.908;2022-12-19T00:08:39;1.60;86.70
42037;DHT22;30340;52.004;5.908;2022-12-19T00:11:05;1.60;86.70
42037;DHT22;30340;52.004;5.908;2022-12-19T00:13:31;1.60;86.80
42037;DHT22;30340;52.004;5.908;2022-12-19T00:16:07;1.60;86.80
42037;DHT22;30340;52.004;5.908;2022-12-19T00:18:33;1.70;86.90
42037;DHT22;30340;52.004;5.908;2022-12-19T00:21:03;1.70;86.70
42037;DHT22;30340;52.004;5.908;2022-12-19T00:23:31;1.80;86.70
42037;DHT22;30340;52.004;5.908;2022-12-19T00:28:31;1.70;86.90
42037;DHT22;30340;52.004;5.908;2022-12-19T00:31:00;1.70;87.20
42037;DHT22;30340;52.004;5.908;2022-12-19T00:33:25;1.70;87.40
42037;DHT22;30340;52.004;5.908;2022-12-19T00:35:59;1.80;87.60
42037;DHT22;30340;52.004;5.908;2022-12-19T00:38:25;1.80;87.80
42037;DHT22;30340;52.004;5.908;2022-12-19T00:40:50;1.80;87.90
42037;DHT22;30340;52.004;5.908;2022-12-19T00:43:16;1.80;88.10
42037;DHT22;30340;52.004;5.908;2022-12-19T00:45:42;1.80;88.60
42037;DHT22;30340;52.004;5.908;2022-12-19T00:48:07;1.80;88.70
42037;DHT22;30340;52.004;5.908;2022-12-19T00:50:33;1.80;88.70
42037;DHT22;30340;52.004;5.908;2022-12-19T00:52:58;1.90;88.90
42037;DHT22;30340;52.004;5.908;2022-12-19T00:55:24;1.90;89.10
42037;DHT22;30340;52.004;5.908;2022-12-19T00:57:49;1.80;89.30
42037;DHT22;30340;52.004;5.908;2022-12-19T01:00:15;1.90;89.50
42037;DHT22;30340;52.004;5.908;2022-12-19T01:02:41;1.90;89.70
42037;DHT22;30340;52.004;5.908;2022-12-19T01:05:08;1.80;90.00
42037;DHT22;30340;52.004;5.908;2022-12-19T01:07:33;1.90;90.10
42037;DHT22;30340;52.004;5.908;2022-12-19T01:09:59;1.90;90.20
42037;DHT22;30340;52.004;5.908;2022-12-19T01:12:24;1.90;90.20
42037;DHT22;30340;52.004;5.908;2022-12-19T01:15:09;2.00;90.10
42037;DHT22;30340;52.004;5.908;2022-12-19T01:17:34;2.00;90.10
42037;DHT22;30340;52.004;5.908;2022-12-19T01:20:00;2.00;90.10
42037;DHT22;30340;52.004;5.908;2022-12-19T01:22:26;2.00;90.10
42037;DHT22;30340;52.004;5.908;2022-12-19T01:24:51;2.10;90.20
42037;DHT22;30340;52.004;5.908;2022-12-19T01:27:17;2.10;90.20
42037;DHT22;30340;52.004;5.908;2022-12-19T01:29:42;2.10;90.20
42037;DHT22;30340;52.004;5.908;2022-12-19T01:32:08;2.10;90.30
42037;DHT22;30340;52.004;5.908;2022-12-19T01:34:33;2.10;90.40
42037;DHT22;30340;52.004;5.908;2022-12-19T01:36:59;2.10;90.50
42037;DHT22;30340;52.004;5.908;2022-12-19T01:39:25;2.10;90.50
42037;DHT22;30340;52.004;5.908;2022-12-19T01:41:50;2.20;90.60
42037;DHT22;30340;52.004;5.908;2022-12-19T01:44:16;2.20;90.60
42037;DHT22;30340;52.004;5.908;2022-12-19T01:46:45;2.20;90.60
42037;DHT22;30340;52.004;5.908;2022-12-19T01:49:31;2.30;90.60
42037;DHT22;30340;52.004;5.908;2022-12-19T01:52:02;2.30;90.70
42037;DHT22;30340;52.004;5.908;2022-12-19T01:54:37;2.30;90.70
42037;DHT22;30340;52.004;5.908;2022-12-19T01:57:09;2.30;90.80
42037;DHT22;30340;52.004;5.908;2022-12-19T01:59:38;2.30;90.80
42037;DHT22;30340;52.004;5.908;2022-12-19T02:02:12;2.40;90.80
42037;DHT22;30340;52.004;5.908;2022-12-19T02:04:40;2.40;90.70
42037;DHT22;30340;52.004;5.908;2022-12-19T02:07:09;2.40;90.80
42037;DHT22;30340;52.004;5.908;2022-12-19T02:09:36;2.40;90.80
42037;DHT22;30340;52.004;5.908;2022-12-19T02:12:01;2.50;90.80
42037;DHT22;30340;52.004;5.908;2022-12-19T02:14:28;2.50;90.80
42037;DHT22;30340;52.004;5.908;2022-12-19T02:19:57;2.60;90.90
42037;DHT22;30340;52.004;5.908;2022-12-19T02:22:33;2.60;90.90
42037;DHT22;30340;52.004;5.908;2022-12-19T02:36:29;2.70;91.00
42037;DHT22;30340;52.004;5.908;2022-12-19T02:39:00;2.70;91.00
42037;DHT22;30340;52.004;5.908;2022-12-19T02:41:47;2.80;91.00
42037;DHT22;30340;52.004;5.908;2022-12-19T02:44:19;2.80;90.90
42037;DHT22;30340;52.004;5.908;2022-12-19T02:46:48;2.80;90.90
42037;DHT22;30340;52.004;5.908;2022-12-19T02:49:14;2.90;91.00
42037;DHT22;30340;52.004;5.908;2022-12-19T02:51:40;2.90;90.90
42037;DHT22;30340;52.004;5.908;2022-12-19T02:54:06;2.90;90.80
42037;DHT22;30340;52.004;5.908;2022-12-19T02:56:48;3.00;90.80
42037;DHT22;30340;52.004;5.908;2022-12-19T03:02:46;3.00;90.80
42037;DHT22;30340;52.004;5.908;2022-12-19T03:13:37;3.00;90.90
42037;DHT22;30340;52.004;5.908;2022-12-19T03:16:08;3.00;90.90
42037;DHT22;30340;52.004;5.908;2022-12-19T03:18:34;3.00;90.90
42037;DHT22;30340;52.004;5.908;2022-12-19T03:23:40;3.00;91.00
42037;DHT22;30340;52.004;5.908;2022-12-19T03:26:15;3.10;91.00
42037;DHT22;30340;52.004;5.908;2022-12-19T03:28:58;3.10;91.00
42037;DHT22;30340;52.004;5.908;2022-12-19T03:31:28;3.10;91.10
42037;DHT22;30340;52.004;5.908;2022-12-19T03:34:05;3.20;91.10
42037;DHT22;30340;52.004;5.908;2022-12-19T03:36:37;3.20;91.10
42037;DHT22;30340;52.004;5.908;2022-12-19T03:39:05;3.20;91.00
42037;DHT22;30340;52.004;5.908;2022-12-19T03:41:31;3.20;91.00
42037;DHT22;30340;52.004;5.908;2022-12-19T03:44:18;3.20;91.10
42037;DHT22;30340;52.004;5.908;2022-12-19T03:46:56;3.30;91.20
42037;DHT22;30340;52.004;5.908;2022-12-19T03:49:23;3.30;91.20
42037;DHT22;30340;52.004;5.908;2022-12-19T03:51:58;3.30;91.50
42037;DHT22;30340;52.004;5.908;2022-12-19T03:54:28;3.40;91.30
42037;DHT22;30340;52.004;5.908;2022-12-19T03:59:55;3.40;91.30
42037;DHT22;30340;52.004;5.908;2022-12-19T04:02:22;3.50;91.40
42037;DHT22;30340;52.004;5.908;2022-12-19T04:04:53;3.60;91.40
42037;DHT22;30340;52.004;5.908;2022-12-19T04:07:20;3.50;91.40
42037;DHT22;30340;52.004;5.908;2022-12-19T04:09:48;3.50;91.50
42037;DHT22;30340;52.004;5.908;2022-12-19T04:12:17;3.60;91.50
42037;DHT22;30340;52.004;5.908;2022-12-19T04:14:44;3.60;91.50
42037;DHT22;30340;52.004;5.908;2022-12-19T04:17:38;3.60;91.50
42037;DHT22;30340;52.004;5.908;2022-12-19T04:20:16;3.70;91.50
42037;DHT22;30340;52.004;5.908;2022-12-19T04:22:57;3.70;91.50
42037;DHT22;30340;52.004;5.908;2022-12-19T04:25:27;3.70;91.60
42037;DHT22;30340;52.004;5.908;2022-12-19T04:28:04;3.70;91.60
42037;DHT22;30340;52.004;5.908;2022-12-19T04:30:32;3.70;91.50
42037;DHT22;30340;52.004;5.908;2022-12-19T04:32:57;3.70;91.50
42037;DHT22;30340;52.004;5.908;2022-12-19T04:35:23;3.70;91.60
42037;DHT22;30340;52.004;5.908;2022-12-19T04:37:48;3.80;91.70
42037;DHT22;30340;52.004;5.908;2022-12-19T04:40:15;3.90;91.80
42037;DHT22;30340;52.004;5.908;2022-12-19T04:42:41;3.90;91.80
42037;DHT22;30340;52.004;5.908;2022-12-19T04:45:07;3.90;91.70
42037;DHT22;30340;52.004;5.908;2022-12-19T04:47:32;4.00;91.70
42037;DHT22;30340;52.004;5.908;2022-12-19T04:49:58;4.00;91.70
42037;DHT22;30340;52.004;5.908;2022-12-19T04:52:23;4.00;91.70
42037;DHT22;30340;52.004;5.908;2022-12-19T04:54:49;4.10;91.80
42037;DHT22;30340;52.004;5.908;2022-12-19T04:57:15;4.10;91.80
42037;DHT22;30340;52.004;5.908;2022-12-19T04:59:40;4.10;91.70
42037;DHT22;30340;52.004;5.908;2022-12-19T05:02:06;4.10;91.80
42037;DHT22;30340;52.004;5.908;2022-12-19T05:04:32;4.20;91.80
42037;DHT22;30340;52.004;5.908;2022-12-19T05:06:57;4.20;91.80
42037;DHT22;30340;52.004;5.908;2022-12-19T05:09:23;4.30;91.90
42037;DHT22;30340;52.004;5.908;2022-12-19T05:11:48;4.30;91.90
42037;DHT22;30340;52.004;5.908;2022-12-19T05:14:14;4.40;91.90
42037;DHT22;30340;52.004;5.908;2022-12-19T05:16:40;4.40;91.80
42037;DHT22;30340;52.004;5.908;2022-12-19T05:19:06;4.40;91.90
42037;DHT22;30340;52.004;5.908;2022-12-19T05:21:32;4.40;91.90
42037;DHT22;30340;52.004;5.908;2022-12-19T05:23:57;4.50;92.00
42037;DHT22;30340;52.004;5.908;2022-12-19T05:26:23;4.50;92.00
42037;DHT22;30340;52.004;5.908;2022-12-19T05:28:49;4.50;92.00
42037;DHT22;30340;52.004;5.908;2022-12-19T05:31:17;4.60;92.00
42037;DHT22;30340;52.004;5.908;2022-12-19T05:33:44;4.60;92.00
42037;DHT22;30340;52.004;5.908;2022-12-19T05:36:11;4.60;92.00
42037;DHT22;30340;52.004;5.908;2022-12-19T05:38:37;4.60;92.00
42037;DHT22;30340;52.004;5.908;2022-12-19T05:41:13;4.70;92.00
42037;DHT22;30340;52.004;5.908;2022-12-19T05:43:40;4.70;92.00
42037;DHT22;30340;52.004;5.908;2022-12-19T05:46:06;4.80;92.00
42037;DHT22;30340;52.004;5.908;2022-12-19T05:48:32;4.80;92.00
42037;DHT22;30340;52.004;5.908;2022-12-19T05:50:58;4.90;92.00
42037;DHT22;30340;52.004;5.908;2022-12-19T05:53:23;4.90;92.00
42037;DHT22;30340;52.004;5.908;2022-12-19T05:55:52;5.00;92.00
42037;DHT22;30340;52.004;5.908;2022-12-19T05:58:17;5.00;92.00
42037;DHT22;30340;52.004;5.908;2022-12-19T06:00:43;5.10;92.10
42037;DHT22;30340;52.004;5.908;2022-12-19T06:03:08;5.10;92.00
42037;DHT22;30340;52.004;5.908;2022-12-19T06:05:36;5.20;92.00
42037;DHT22;30340;52.004;5.908;2022-12-19T06:08:03;5.20;92.00
42037;DHT22;30340;52.004;5.908;2022-12-19T06:10:29;5.30;92.00
42037;DHT22;30340;52.004;5.908;2022-12-19T06:12:54;5.40;92.10
42037;DHT22;30340;52.004;5.908;2022-12-19T06:15:20;5.30;92.10
42037;DHT22;30340;52.004;5.908;2022-12-19T06:17:46;5.40;92.10
42037;DHT22;30340;52.004;5.908;2022-12-19T06:20:11;5.50;92.10
42037;DHT22;30340;52.004;5.908;2022-12-19T06:22:37;5.50;92.10
42037;DHT22;30340;52.004;5.908;2022-12-19T06:25:02;5.50;92.20
42037;DHT22;30340;52.004;5.908;2022-12-19T06:27:28;5.60;92.30
42037;DHT22;30340;52.004;5.908;2022-12-19T06:29:54;5.60;92.30
42037;DHT22;30340;52.004;5.908;2022-12-19T06:32:19;5.60;92.40
42037;DHT22;30340;52.004;5.908;2022-12-19T06:34:45;5.70;92.50
42037;DHT22;30340;52.004;5.908;2022-12-19T06:37:11;5.80;92.60
42037;DHT22;30340;52.004;5.908;2022-12-19T06:39:36;5.80;92.70
42037;DHT22;30340;52.004;5.908;2022-12-19T06:42:02;5.90;92.80
42037;DHT22;30340;52.004;5.908;2022-12-19T06:44:46;5.90;92.80
42037;DHT22;30340;52.004;5.908;2022-12-19T06:47:12;6.00;92.90
42037;DHT22;30340;52.004;5.908;2022-12-19T06:49:37;6.00;93.00
42037;DHT22;30340;52.004;5.908;2022-12-19T06:52:03;6.10;93.00
42037;DHT22;30340;52.004;5.908;2022-12-19T06:54:28;6.10;93.00
42037;DHT22;30340;52.004;5.908;2022-12-19T06:56:54;6.20;93.00
42037;DHT22;30340;52.004;5.908;2022-12-19T06:59:20;6.20;93.00
42037;DHT22;30340;52.004;5.908;2022-12-19T07:04:31;6.30;93.00
42037;DHT22;30340;52.004;5.908;2022-12-19T07:06:58;6.30;93.10
42037;DHT22;30340;52.004;5.908;2022-12-19T07:09:25;6.30;93.40
42037;DHT22;30340;52.004;5.908;2022-12-19T07:11:51;6.40;93.20
42037;DHT22;30340;52.004;5.908;2022-12-19T07:14:17;6.40;93.20
42037;DHT22;30340;52.004;5.908;2022-12-19T07:16:44;6.50;93.30
42037;DHT22;30340;52.004;5.908;2022-12-19T07:19:10;6.50;93.30
42037;DHT22;30340;52.004;5.908;2022-12-19T07:21:36;6.60;93.60
42037;DHT22;30340;52.004;5.908;2022-12-19T07:24:02;6.70;93.30
42037;DHT22;30340;52.004;5.908;2022-12-19T07:26:28;6.70;93.30
42037;DHT22;30340;52.004;5.908;2022-12-19T07:28:54;6.80;93.30
42037;DHT22;30340;52.004;5.908;2022-12-19T07:31:20;6.80;93.40
42037;DHT22;30340;52.004;5.908;2022-12-19T07:33:45;6.90;93.40
42037;DHT22;30340;52.004;5.908;2022-12-19T07:36:11;6.90;93.40
42037;DHT22;30340;52.004;5.908;2022-12-19T07:38:36;6.90;93.40
42037;DHT22;30340;52.004;5.908;2022-12-19T07:41:02;7.00;93.50
42037;DHT22;30340;52.004;5.908;2022-12-19T07:43:28;7.00;93.40
42037;DHT22;30340;52.004;5.908;2022-12-19T07:45:55;7.10;93.50
42037;DHT22;30340;52.004;5.908;2022-12-19T07:48:21;7.10;93.40
42037;DHT22;30340;52.004;5.908;2022-12-19T07:50:47;7.10;93.40
42037;DHT22;30340;52.004;5.908;2022-12-19T07:53:14;7.10;93.40
42037;DHT22;30340;52.004;5.908;2022-12-19T07:55:40;7.20;93.40
42037;DHT22;30340;52.004;5.908;2022-12-19T07:58:05;7.20;93.40
42037;DHT22;30340;52.004;5.908;2022-12-19T08:00:31;7.20;93.40
42037;DHT22;30340;52.004;5.908;2022-12-19T08:03:00;7.20;93.40
42037;DHT22;30340;52.004;5.908;2022-12-19T08:05:25;7.30;93.40
42037;DHT22;30340;52.004;5.908;2022-12-19T08:07:51;7.30;93.40
42037;DHT22;30340;52.004;5.908;2022-12-19T08:10:16;7.30;93.40
42037;DHT22;30340;52.004;5.908;2022-12-19T08:12:43;7.40;93.40
42037;DHT22;30340;52.004;5.908;2022-12-19T08:15:09;7.40;93.50
42037;DHT22;30340;52.004;5.908;2022-12-19T08:17:35;7.50;93.50
42037;DHT22;30340;52.004;5.908;2022-12-19T08:20:03;7.50;93.50
42037;DHT22;30340;52.004;5.908;2022-12-19T08:22:29;7.60;93.60
42037;DHT22;30340;52.004;5.908;2022-12-19T08:24:55;7.60;93.60
42037;DHT22;30340;52.004;5.908;2022-12-19T08:27:22;7.70;93.70
42037;DHT22;30340;52.004;5.908;2022-12-19T08:29:47;7.70;93.70
42037;DHT22;30340;52.004;5.908;2022-12-19T08:32:14;7.70;93.80
42037;DHT22;30340;52.004;5.908;2022-12-19T08:34:40;7.80;93.80
42037;DHT22;30340;52.004;5.908;2022-12-19T08:37:05;7.90;93.90
42037;DHT22;30340;52.004;5.908;2022-12-19T08:39:31;7.90;93.90
42037;DHT22;30340;52.004;5.908;2022-12-19T08:41:56;7.90;93.80
42037;DHT22;30340;52.004;5.908;2022-12-19T08:44:22;8.00;93.90
42037;DHT22;30340;52.004;5.908;2022-12-19T08:46:47;8.00;93.90
42037;DHT22;30340;52.004;5.908;2022-12-19T08:49:13;8.00;93.90
42037;DHT22;30340;52.004;5.908;2022-12-19T08:51:38;8.00;93.90
42037;DHT22;30340;52.004;5.908;2022-12-19T08:54:04;8.00;93.90
42037;DHT22;30340;52.004;5.908;2022-12-19T08:56:30;8.10;93.90
42037;DHT22;30340;52.004;5.908;2022-12-19T08:58:55;8.10;93.90
42037;DHT22;30340;52.004;5.908;2022-12-19T09:01:21;8.20;93.80
42037;DHT22;30340;52.004;5.908;2022-12-19T09:03:48;8.20;93.80
42037;DHT22;30340;52.004;5.908;2022-12-19T09:06:14;8.20;93.80
42037;DHT22;30340;52.004;5.908;2022-12-19T09:08:41;8.20;93.70
42037;DHT22;30340;52.004;5.908;2022-12-19T09:11:13;8.30;93.70
42037;DHT22;30340;52.004;5.908;2022-12-19T09:13:40;8.30;93.90
42037;DHT22;30340;52.004;5.908;2022-12-19T09:18:41;8.30;93.50
42037;DHT22;30340;52.004;5.908;2022-12-19T09:21:07;8.30;93.50
42037;DHT22;30340;52.004;5.908;2022-12-19T09:23:33;8.30;93.50
42037;DHT22;30340;52.004;5.908;2022-12-19T09:26:07;8.30;93.40
42037;DHT22;30340;52.004;5.908;2022-12-19T09:28:34;8.30;93.40
42037;DHT22;30340;52.004;5.908;2022-12-19T09:31:02;8.30;93.40
42037;DHT22;30340;52.004;5.908;2022-12-19T09:33:30;8.30;93.40
42037;DHT22;30340;52.004;5.908;2022-12-19T09:35:56;8.30;93.40
42037;DHT22;30340;52.004;5.908;2022-12-19T09:38:22;8.30;93.40
42037;DHT22;30340;52.004;5.908;2022-12-19T09:41:02;8.30;93.40
42037;DHT22;30340;52.004;5.908;2022-12-19T09:46:46;8.30;93.40
42037;DHT22;30340;52.004;5.908;2022-12-19T09:49:13;8.30;93.40
42037;DHT22;30340;52.004;5.908;2022-12-19T09:57:05;8.30;93.50
42037;DHT22;30340;52.004;5.908;2022-12-19T09:59:40;8.30;93.50
42037;DHT22;30340;52.004;5.908;2022-12-19T10:05:11;8.40;93.50
42037;DHT22;30340;52.004;5.908;2022-12-19T10:07:38;8.40;93.50
42037;DHT22;30340;52.004;5.908;2022-12-19T10:10:04;8.40;93.50
42037;DHT22;30340;52.004;5.908;2022-12-19T10:12:54;8.40;93.40
42037;DHT22;30340;52.004;5.908;2022-12-19T10:18:19;8.40;93.40
42037;DHT22;30340;52.004;5.908;2022-12-19T10:21:00;8.50;93.40
42037;DHT22;30340;52.004;5.908;2022-12-19T10:23:55;8.50;93.40
42037;DHT22;30340;52.004;5.908;2022-12-19T10:26:50;8.50;93.50
42037;DHT22;30340;52.004;5.908;2022-12-19T10:35:12;8.50;93.50
42037;DHT22;30340;52.004;5.908;2022-12-19T10:37:51;8.50;93.60
42037;DHT22;30340;52.004;5.908;2022-12-19T10:40:24;8.50;93.60
42037;DHT22;30340;52.004;5.908;2022-12-19T10:42:58;8.60;93.60
42037;DHT22;30340;52.004;5.908;2022-12-19T10:45:30;8.60;93.60
42037;DHT22;30340;52.004;5.908;2022-12-19T10:47:57;8.60;93.60
42037;DHT22;30340;52.004;5.908;2022-12-19T10:50:25;8.60;93.60
42037;DHT22;30340;52.004;5.908;2022-12-19T10:52:54;8.60;93.70
42037;DHT22;30340;52.004;5.908;2022-12-19T10:55:28;8.60;93.70
42037;DHT22;30340;52.004;5.908;2022-12-19T10:57:59;8.70;93.70
42037;DHT22;30340;52.004;5.908;2022-12-19T11:00:35;8.70;93.70
42037;DHT22;30340;52.004;5.908;2022-12-19T11:03:11;8.70;93.60
42037;DHT22;30340;52.004;5.908;2022-12-19T11:06:36;8.70;93.60
42037;DHT22;30340;52.004;5.908;2022-12-19T11:09:21;8.80;93.60
42037;DHT22;30340;52.004;5.908;2022-12-19T11:11:54;8.80;93.60
42037;DHT22;30340;52.004;5.908;2022-12-19T11:14:28;8.90;93.50
42037;DHT22;30340;52.004;5.908;2022-12-19T11:16:54;8.80;93.50
42037;DHT22;30340;52.004;5.908;2022-12-19T11:19:26;8.90;93.50
42037;DHT22;30340;52.004;5.908;2022-12-19T11:21:55;8.90;93.50
42037;DHT22;30340;52.004;5.908;2022-12-19T11:24:28;8.90;93.40
42037;DHT22;30340;52.004;5.908;2022-12-19T11:26:55;8.90;93.40
42037;DHT22;30340;52.004;5.908;2022-12-19T11:32:33;8.90;93.40
42037;DHT22;30340;52.004;5.908;2022-12-19T11:35:01;8.90;93.30
42037;DHT22;30340;52.004;5.908;2022-12-19T11:37:36;9.00;93.30
42037;DHT22;30340;52.004;5.908;2022-12-19T11:40:34;9.00;93.30
42037;DHT22;30340;52.004;5.908;2022-12-19T11:45:50;9.00;93.30
42037;DHT22;30340;52.004;5.908;2022-12-19T11:51:04;9.00;93.40
42037;DHT22;30340;52.004;5.908;2022-12-19T11:56:20;9.00;93.50
42037;DHT22;30340;52.004;5.908;2022-12-19T11:58:54;9.00;93.50
42037;DHT22;30340;52.004;5.908;2022-12-19T12:01:51;9.00;93.50
42037;DHT22;30340;52.004;5.908;2022-12-19T12:04:54;9.10;93.60
42037;DHT22;30340;52.004;5.908;2022-12-19T12:07:35;9.10;93.60
42037;DHT22;30340;52.004;5.908;2022-12-19T12:10:04;9.20;93.60
42037;DHT22;30340;52.004;5.908;2022-12-19T12:13:14;9.20;93.50
42037;DHT22;30340;52.004;5.908;2022-12-19T12:15:40;9.20;93.50
42037;DHT22;30340;52.004;5.908;2022-12-19T12:21:20;9.30;93.40
42037;DHT22;30340;52.004;5.908;2022-12-19T12:24:25;9.30;93.40
42037;DHT22;30340;52.004;5.908;2022-12-19T12:30:08;9.30;93.30
42037;DHT22;30340;52.004;5.908;2022-12-19T12:32:46;9.40;93.20
42037;DHT22;30340;52.004;5.908;2022-12-19T12:35:33;9.40;93.10
42037;DHT22;30340;52.004;5.908;2022-12-19T12:41:17;9.40;93.00
42037;DHT22;30340;52.004;5.908;2022-12-19T12:46:26;9.50;92.80
42037;DHT22;30340;52.004;5.908;2022-12-19T12:49:05;9.50;92.70
42037;DHT22;30340;52.004;5.908;2022-12-19T12:51:37;9.60;92.60
42037;DHT22;30340;52.004;5.908;2022-12-19T12:54:05;9.60;92.50
42037;DHT22;30340;52.004;5.908;2022-12-19T12:56:33;9.70;92.40
42037;DHT22;30340;52.004;5.908;2022-12-19T13:04:01;9.70;92.00
42037;DHT22;30340;52.004;5.908;2022-12-19T13:06:39;9.80;92.00
42037;DHT22;30340;52.004;5.908;2022-12-19T13:09:23;9.80;91.80
42037;DHT22;30340;52.004;5.908;2022-12-19T13:12:25;9.80;91.70
42037;DHT22;30340;52.004;5.908;2022-12-19T13:15:30;9.90;91.60
42037;DHT22;30340;52.004;5.908;2022-12-19T13:20:50;9.90;91.30
42037;DHT22;30340;52.004;5.908;2022-12-19T13:23:43;10.00;91.20
42037;DHT22;30340;52.004;5.908;2022-12-19T13:30:18;10.00;90.80
42037;DHT22;30340;52.004;5.908;2022-12-19T13:32:31;10.10;90.80
42037;DHT22;30340;52.004;5.908;2022-12-19T13:35:01;10.10;90.60
42037;DHT22;30340;52.004;5.908;2022-12-19T13:37:31;10.10;90.50
42037;DHT22;30340;52.004;5.908;2022-12-19T13:40:23;10.10;90.40
42037;DHT22;30340;52.004;5.908;2022-12-19T13:46:35;10.10;90.30
42037;DHT22;30340;52.004;5.908;2022-12-19T13:51:44;10.20;90.10
42037;DHT22;30340;52.004;5.908;2022-12-19T13:54:22;10.20;90.10
42037;DHT22;30340;52.004;5.908;2022-12-19T13:56:50;10.20;90.10
42037;DHT22;30340;52.004;5.908;2022-12-19T13:59:16;10.20;90.00
42037;DHT22;30340;52.004;5.908;2022-12-19T14:01:42;10.20;90.00
42037;DHT22;30340;52.004;5.908;2022-12-19T14:04:11;10.20;90.00
42037;DHT22;30340;52.004;5.908;2022-12-19T14:06:45;10.20;89.90
42037;DHT22;30340;52.004;5.908;2022-12-19T14:09:33;10.20;89.80
42037;DHT22;30340;52.004;5.908;2022-12-19T14:12:01;10.20;89.80
42037;DHT22;30340;52.004;5.908;2022-12-19T14:14:28;10.20;89.60
42037;DHT22;30340;52.004;5.908;2022-12-19T14:17:16;10.10;89.60
42037;DHT22;30340;52.004;5.908;2022-12-19T14:19:45;10.10;89.50
42037;DHT22;30340;52.004;5.908;2022-12-19T14:22:20;10.20;89.50
42037;DHT22;30340;52.004;5.908;2022-12-19T14:25:00;10.10;89.40
42037;DHT22;30340;52.004;5.908;2022-12-19T14:27:40;10.10;89.40
42037;DHT22;30340;52.004;5.908;2022-12-19T14:30:18;10.10;89.30
42037;DHT22;30340;52.004;5.908;2022-12-19T14:32:45;10.10;89.30
42037;DHT22;30340;52.004;5.908;2022-12-19T14:35:15;10.10;89.20
42037;DHT22;30340;52.004;5.908;2022-12-19T14:37:44;10.10;89.30
42037;DHT22;30340;52.004;5.908;2022-12-19T14:40:23;10.10;89.10
42037;DHT22;30340;52.004;5.908;2022-12-19T14:42:51;10.10;89.00
42037;DHT22;30340;52.004;5.908;2022-12-19T14:45:40;10.10;88.90
42037;DHT22;30340;52.004;5.908;2022-12-19T14:48:26;10.10;88.80
42037;DHT22;30340;52.004;5.908;2022-12-19T14:51:44;10.10;88.80
42037;DHT22;30340;52.004;5.908;2022-12-19T14:54:16;10.10;88.70
42037;DHT22;30340;52.004;5.908;2022-12-19T15:02:07;10.20;88.50
42037;DHT22;30340;52.004;5.908;2022-12-19T15:04:39;10.20;88.40
42037;DHT22;30340;52.004;5.908;2022-12-19T15:07:15;10.10;88.20
42037;DHT22;30340;52.004;5.908;2022-12-19T15:12:32;10.20;88.00
42037;DHT22;30340;52.004;5.908;2022-12-19T15:15:22;10.20;87.80
42037;DHT22;30340;52.004;5.908;2022-12-19T15:17:51;10.20;87.60
42037;DHT22;30340;52.004;5.908;2022-12-19T15:20:17;10.20;87.60
42037;DHT22;30340;52.004;5.908;2022-12-19T15:22:42;10.20;87.50
42037;DHT22;30340;52.004;5.908;2022-12-19T15:25:15;10.30;87.30
42037;DHT22;30340;52.004;5.908;2022-12-19T15:27:43;10.20;87.10
42037;DHT22;30340;52.004;5.908;2022-12-19T15:30:19;10.30;87.10
42037;DHT22;30340;52.004;5.908;2022-12-19T15:32:46;10.30;86.80
42037;DHT22;30340;52.004;5.908;2022-12-19T15:35:13;10.30;86.50
42037;DHT22;30340;52.004;5.908;2022-12-19T15:37:39;10.30;86.30
42037;DHT22;30340;52.004;5.908;2022-12-19T15:40:06;10.30;86.10
42037;DHT22;30340;52.004;5.908;2022-12-19T15:42:31;10.30;86.10
42037;DHT22;30340;52.004;5.908;2022-12-19T15:44:59;10.30;86.00
42037;DHT22;30340;52.004;5.908;2022-12-19T15:47:33;10.30;85.80
42037;DHT22;30340;52.004;5.908;2022-12-19T15:50:00;10.30;85.70
42037;DHT22;30340;52.004;5.908;2022-12-19T15:52:31;10.30;85.60
42037;DHT22;30340;52.004;5.908;2022-12-19T15:54:56;10.30;85.60
42037;DHT22;30340;52.004;5.908;2022-12-19T15:57:29;10.40;85.70
42037;DHT22;30340;52.004;5.908;2022-12-19T15:59:59;10.40;85.60
42037;DHT22;30340;52.004;5.908;2022-12-19T16:02:26;10.40;85.60
42037;DHT22;30340;52.004;5.908;2022-12-19T16:04:52;10.40;85.50
42037;DHT22;30340;52.004;5.908;2022-12-19T16:07:20;10.40;85.40
42037;DHT22;30340;52.004;5.908;2022-12-19T16:09:48;10.40;85.30
42037;DHT22;30340;52.004;5.908;2022-12-19T16:12:20;10.50;85.30
42037;DHT22;30340;52.004;5.908;2022-12-19T16:14:54;10.50;85.10
42037;DHT22;30340;52.004;5.908;2022-12-19T16:17:22;10.50;84.90
42037;DHT22;30340;52.004;5.908;2022-12-19T16:19:49;10.50;84.80
42037;DHT22;30340;52.004;5.908;2022-12-19T16:22:20;10.50;84.80
42037;DHT22;30340;52.004;5.908;2022-12-19T16:24:46;10.50;84.50
42037;DHT22;30340;52.004;5.908;2022-12-19T16:27:24;10.50;84.40
42037;DHT22;30340;52.004;5.908;2022-12-19T16:29:51;10.50;84.10
42037;DHT22;30340;52.004;5.908;2022-12-19T16:32:18;10.50;84.10
42037;DHT22;30340;52.004;5.908;2022-12-19T16:34:43;10.50;84.00
42037;DHT22;30340;52.004;5.908;2022-12-19T16:37:09;10.50;83.70
42037;DHT22;30340;52.004;5.908;2022-12-19T16:39:36;10.50;83.70
42037;DHT22;30340;52.004;5.908;2022-12-19T16:42:04;10.50;83.40
42037;DHT22;30340;52.004;5.908;2022-12-19T16:44:36;10.60;83.00
42037;DHT22;30340;52.004;5.908;2022-12-19T16:47:02;10.60;82.90
42037;DHT22;30340;52.004;5.908;2022-12-19T16:49:28;10.60;82.70
42037;DHT22;30340;52.004;5.908;2022-12-19T16:51:55;10.60;82.60
42037;DHT22;30340;52.004;5.908;2022-12-19T16:54:20;10.60;82.60
42037;DHT22;30340;52.004;5.908;2022-12-19T16:56:51;10.70;82.50
42037;DHT22;30340;52.004;5.908;2022-12-19T16:59:20;10.60;82.20
42037;DHT22;30340;52.004;5.908;2022-12-19T17:01:46;10.70;82.10
42037;DHT22;30340;52.004;5.908;2022-12-19T17:04:20;10.70;81.90
42037;DHT22;30340;52.004;5.908;2022-12-19T17:06:46;10.70;81.70
42037;DHT22;30340;52.004;5.908;2022-12-19T17:09:18;10.70;81.70
42037;DHT22;30340;52.004;5.908;2022-12-19T17:11:45;10.70;81.70
42037;DHT22;30340;52.004;5.908;2022-12-19T17:14:22;10.70;81.70
42037;DHT22;30340;52.004;5.908;2022-12-19T17:16:50;10.70;81.70
42037;DHT22;30340;52.004;5.908;2022-12-19T17:19:34;10.70;81.70
42037;DHT22;30340;52.004;5.908;2022-12-19T17:22:01;10.70;81.70
42037;DHT22;30340;52.004;5.908;2022-12-19T17:24:26;10.70;81.70
42037;DHT22;30340;52.004;5.908;2022-12-19T17:26:52;10.70;81.60
42037;DHT22;30340;52.004;5.908;2022-12-19T17:29:18;10.70;81.70
42037;DHT22;30340;52.004;5.908;2022-12-19T17:31:43;10.70;81.70
42037;DHT22;30340;52.004;5.908;2022-12-19T17:34:16;10.70;81.80
42037;DHT22;30340;52.004;5.908;2022-12-19T17:36:44;10.80;81.90
42037;DHT22;30340;52.004;5.908;2022-12-19T17:39:31;10.70;81.80
42037;DHT22;30340;52.004;5.908;2022-12-19T17:42:00;10.80;81.70
42037;DHT22;30340;52.004;5.908;2022-12-19T17:44:26;10.80;81.60
42037;DHT22;30340;52.004;5.908;2022-12-19T17:46:52;10.80;81.50
42037;DHT22;30340;52.004;5.908;2022-12-19T17:49:29;10.80;81.20
42037;DHT22;30340;52.004;5.908;2022-12-19T17:51:55;10.80;81.30